Flight Track Log - Related Links

Times and Time Zones

All times are in EST time to prevent confusion due to time zone crossing. See the EJA929 flight status page for this flight to view local times or setup timezone preferences in your user account.

Time Position Orientation Groundspeed Altitude Reporting Facility
EST Latitude Longitude Course Direction KTS MPH feet Rate Location/Type
Fri 12:51:11 PM 28.3036 -81.5536 330° Northwest 211 243 7,000  Level Jacksonville Center
Fri 12:52:11 PM 28.3022 -81.6242 269° West 218 251 11,000 3,600 Climbing Jacksonville Center
Fri 12:53:11 PM 28.3239 -81.7089 286° West 238 274 14,200 3,100 Climbing Jacksonville Center
Fri 12:54:11 PM 28.3603 -81.8006 294° West 285 328 17,200 2,800 Climbing Jacksonville Center
Fri 12:55:00 PM 28.3937 -82.2725 279° West  Level FlightAware Approximate
Fri 12:55:11 PM 28.3986 -81.8944 295° West 314 361 19,800  Level Jacksonville Center
Fri 12:56:00 PM 28.4522 -82.3904 330° Northwest  Level FlightAware Approximate
Fri 12:56:11 PM 28.4367 -81.9861 295° West 319 367 22,500  Level Jacksonville Center
Fri 12:57:11 PM 28.4728 -82.0731 295° West 314 361 24,800 2,050 Climbing Jacksonville Center
Fri 12:58:11 PM 28.5131 -82.1697 295° West 319 367 26,600 1,900 Climbing Jacksonville Center
Fri 12:59:11 PM 28.5575 -82.2614 299° West 325 374 28,600 1,650 Climbing Jacksonville Center
Fri 01:00:11 PM 28.6039 -82.3581 299° West 332 382 29,900 1,500 Climbing Jacksonville Center
Fri 01:01:11 PM 28.6522 -82.4644 297° West 354 407 31,600 1,600 Climbing Jacksonville Center
Fri 01:02:11 PM 28.7297 -82.5469 317° Northwest 373 429 33,100 1,350 Climbing Jacksonville Center
Fri 01:03:11 PM 28.8383 -82.6081 334° Northwest 411 473 34,300 1,250 Climbing Jacksonville Center
Fri 01:04:11 PM 28.9469 -82.6719 333° Northwest 425 489 35,600 850 Climbing Jacksonville Center
Fri 01:05:11 PM 29.0619 -82.7381 333° Northwest 437 503 36,000 350 Climbing Jacksonville Center
Fri 01:06:11 PM 29.1831 -82.8094 333° Northwest 458 527 36,300 650 Climbing Jacksonville Center
Fri 01:07:11 PM 29.3019 -82.8806 332° Northwest 475 547 37,300 1,050 Climbing Jacksonville Center
Fri 01:08:11 PM 29.4189 -82.9497 333° Northwest 475 547 38,400 1,050 Climbing Jacksonville Center
Fri 01:09:11 PM 29.5294 -83.0167 332° Northwest 484 557 39,400 800 Climbing Jacksonville Center
Fri 01:10:11 PM 29.6442 -83.0861 332° Northwest 484 557 40,000 300 Climbing Jacksonville Center
Fri 01:11:11 PM 29.7611 -83.1558 333° Northwest 477 549 40,000  Level Jacksonville Center
Fri 01:12:11 PM 29.8819 -83.2256 333° Northwest 477 549 40,000  Level Jacksonville Center
Fri 01:13:11 PM 30.0008 -83.2981 332° Northwest 477 549 40,000  Level Jacksonville Center
Fri 01:14:11 PM 30.1194 -83.3681 333° Northwest 477 549 40,000  Level Jacksonville Center
Fri 01:15:11 PM 30.2444 -83.4289 337° Northwest 470 541 40,000  Level Jacksonville Center
Fri 01:16:11 PM 30.3653 -83.4919 336° Northwest 475 547 40,000  Level Jacksonville Center
Fri 01:17:11 PM 30.4903 -83.5556 336° Northwest 475 547 40,000  Level Jacksonville Center
Fri 01:18:11 PM 30.6194 -83.6264 335° Northwest 475 547 40,000  Level Jacksonville Center
Fri 01:19:11 PM 30.7422 -83.6925 335° Northwest 475 547 40,000  Level Jacksonville Center
Fri 01:20:11 PM 30.8650 -83.7542 337° Northwest 480 552 40,000  Level Jacksonville Center
Fri 01:21:11 PM 30.9836 -83.8183 335° Northwest 475 547 40,000  Level Jacksonville Center
Fri 01:22:45 PM 31.1769 -83.9225 335° Northwest 499 574 40,000  Level Atlanta Center
Fri 01:23:45 PM 31.2978 -83.9878 335° Northwest 493 567 40,000  Level Atlanta Center
Fri 01:24:45 PM 31.4189 -84.0533 335° Northwest 483 556 40,000  Level Atlanta Center
Fri 01:25:45 PM 31.5400 -84.1217 334° Northwest 478 550 40,000  Level Atlanta Center
Fri 01:26:45 PM 31.6506 -84.1781 337° Northwest 478 550 40,000  Level Atlanta Center
Fri 01:27:45 PM 31.7714 -84.2442 335° Northwest 483 556 40,000  Level Atlanta Center
Fri 01:28:45 PM 31.8944 -84.3128 335° Northwest 483 556 40,000  Level Atlanta Center
Fri 01:29:45 PM 32.0175 -84.3794 335° Northwest 483 556 40,000  Level Atlanta Center
Fri 01:30:45 PM 32.1383 -84.4461 335° Northwest 477 549 40,000  Level Atlanta Center
Fri 01:31:45 PM 32.2656 -84.5131 336° Northwest 483 556 40,000  Level Atlanta Center
Fri 01:32:45 PM 32.3883 -84.5800 335° Northwest 483 556 40,000  Level Atlanta Center
Fri 01:33:45 PM 32.5111 -84.6497 334° Northwest 483 556 40,000  Level Atlanta Center
Fri 01:34:45 PM 32.6339 -84.7172 335° Northwest 483 556 40,000  Level Atlanta Center
Fri 01:35:45 PM 32.7589 -84.7872 335° Northwest 483 556 40,000  Level Atlanta Center
Fri 01:36:45 PM 32.9003 -84.8675 335° Northwest 497 572 40,000  Level Atlanta Center
Fri 01:37:45 PM 33.0103 -84.9306 334° Northwest 492 566 40,000  Level Atlanta Center
Fri 01:38:45 PM 33.1350 -84.9989 335° Northwest 487 560 40,000  Level Atlanta Center
Fri 01:39:45 PM 33.2597 -85.0672 335° Northwest 492 566 40,000  Level Atlanta Center
Fri 01:40:45 PM 33.3844 -85.1383 335° Northwest 492 566 40,000  Level Atlanta Center
Fri 01:41:45 PM 33.5194 -85.2150 335° Northwest 487 560 40,000  Level Atlanta Center
Fri 01:42:45 PM 33.6461 -85.2839 336° Northwest 487 560 40,000  Level Atlanta Center
Fri 01:43:45 PM 33.7683 -85.3558 334° Northwest 486 559 40,000  Level Atlanta Center
Fri 01:44:45 PM 33.8908 -85.4228 336° Northwest 486 559 40,000  Level Atlanta Center
Fri 01:45:45 PM 34.0153 -85.4925 335° Northwest 486 559 40,000  Level Atlanta Center
Fri 01:46:45 PM 34.1356 -85.5622 334° Northwest 486 559 40,000  Level Atlanta Center
Fri 01:47:45 PM 34.2578 -85.6322 335° Northwest 486 559 40,000  Level Atlanta Center
Fri 01:48:45 PM 34.3800 -85.7025 335° Northwest 486 559 40,000  Level Atlanta Center
Fri 01:49:45 PM 34.4856 -85.7650 334° Northwest 479 551 40,000  Level Atlanta Center
Fri 01:50:45 PM 34.6056 -85.8306 336° Northwest 473 544 40,000  Level Atlanta Center
Fri 01:51:45 PM 34.7278 -85.8989 335° Northwest 473 544 40,000  Level Atlanta Center
Fri 01:52:45 PM 34.8478 -85.9700 334° Northwest 478 550 40,000  Level Atlanta Center
Fri 01:53:45 PM 34.9653 -86.0461 332° Northwest 478 550 40,000  Level Atlanta Center
Fri 01:55:53 PM 35.2311 -86.2000 335° Northwest 480 552 40,000  Level Memphis Center
Fri 01:56:55 PM 35.3564 -86.2744 334° Northwest 481 554 40,000  Level Memphis Center
Fri 01:57:57 PM 35.4786 -86.3464 334° Northwest 482 555 40,000  Level Memphis Center
Fri 01:58:59 PM 35.6017 -86.4200 334° Northwest 486 559 40,000  Level Memphis Center
Fri 02:00:01 PM 35.7244 -86.4950 334° Northwest 488 562 40,000  Level Memphis Center
Fri 02:01:03 PM 35.8472 -86.5686 334° Northwest 486 559 40,000  Level Memphis Center
Fri 02:02:05 PM 35.9686 -86.6417 334° Northwest 483 556 40,000  Level Memphis Center
Fri 02:03:07 PM 36.1100 -86.7281 334° Northwest 480 552 40,000  Level Memphis Center
Fri 02:04:09 PM 36.2300 -86.8008 334° Northwest 476 548 40,000  Level Memphis Center
Fri 02:05:11 PM 36.3425 -86.8700 334° Northwest 474 545 40,000  Level Memphis Center
Fri 02:06:13 PM 36.4600 -86.9406 334° Northwest 475 547 40,000  Level Memphis Center
Fri 02:07:14 PM 36.5992 -87.0258 334° Northwest 475 547 40,000  Level Memphis Center
Fri 02:08:16 PM 36.7197 -87.1003 334° Northwest 477 549 40,000  Level Memphis Center
Fri 02:09:18 PM 36.8397 -87.1758 333° Northwest 479 551 40,000  Level Memphis Center
Fri 02:10:20 PM 36.9608 -87.2511 334° Northwest 480 552 40,000  Level Memphis Center
Fri 02:11:22 PM 37.0811 -87.3264 333° Northwest 480 552 40,000  Level Memphis Center
Fri 02:12:24 PM 37.2036 -87.4017 334° Northwest 483 556 40,000  Level Memphis Center
Fri 02:13:26 PM 37.3253 -87.4786 333° Northwest 485 558 40,000  Level Memphis Center
Fri 02:14:29 PM 37.4486 -87.5564 333° Northwest 488 562 40,000  Level Memphis Center
Fri 02:15:31 PM 37.5911 -87.6447 334° Northwest 485 558 40,000  Level Memphis Center
Fri 02:16:33 PM 37.7117 -87.7233 333° Northwest 483 556 40,000  Level Memphis Center
Fri 02:17:35 PM 37.8314 -87.7992 333° Northwest 479 551 40,000  Level Memphis Center
Fri 02:18:26 PM 37.9267 -87.8597 333° Northwest 478 550 40,000  Level Kansas City Center
Fri 02:18:58 PM 37.9986 -87.9072 333° Northwest 479 551 40,000  Level Indianapolis Center
Fri 02:20:01 PM 38.1200 -87.9847 333° Northwest 482 555 40,000  Level Indianapolis Center
Fri 02:21:02 PM 38.2428 -88.0639 333° Northwest 486 559 40,000 -242 Level Indianapolis Center
Fri 02:22:05 PM 38.3650 -88.1428 333° Northwest 488 562 39,500 -919 Descending Indianapolis Center
Fri 02:23:06 PM 38.4881 -88.2228 333° Northwest 489 563 38,100 -1,516 Descending Indianapolis Center
Fri 02:23:36 PM 38.5608 -88.2714 332° Northwest 488 562 37,200 -1,565 Descending Kansas City Center
Fri 02:24:38 PM 38.6789 -88.3486 333° Northwest 482 555 35,700 -1,113 Descending Kansas City Center
Fri 02:25:40 PM 38.7922 -88.4225 333° Northwest 464 534 34,900 -919 Descending Kansas City Center
Fri 02:26:42 PM 38.9086 -88.5011 332° Northwest 465 535 33,800 -1,016 Descending Kansas City Center
Fri 02:27:44 PM 39.0317 -88.5819 333° Northwest 483 556 32,800 -1,258 Descending Kansas City Center
Fri 02:28:46 PM 39.1675 -88.6714 333° Northwest 485 558 31,200 -1,597 Descending Kansas City Center
Fri 02:29:48 PM 39.2850 -88.7478 333° Northwest 479 551 29,500 -1,742 Descending Kansas City Center
Fri 02:30:50 PM 39.3994 -88.8253 332° Northwest 472 543 27,600 -1,790 Descending Kansas City Center
Fri 02:31:52 PM 39.5072 -88.8972 333° Northwest 465 535 25,800 -1,839 Descending Kansas City Center
Fri 02:32:54 PM 39.6167 -88.9731 332° Northwest 451 519 23,800 -2,129 Descending Kansas City Center
Fri 02:33:56 PM 39.7431 -89.0583 333° Northwest 434 499 21,400 -2,129 Descending Kansas City Center
Fri 02:34:58 PM 39.8433 -89.1261 333° Northwest 416 479 19,400 -1,694 Descending Kansas City Center
Fri 02:36:00 PM 39.9406 -89.1931 332° Northwest 401 461 17,900 -1,694 Descending Kansas City Center
Fri 02:37:02 PM 40.0358 -89.2578 333° Northwest 390 449 15,900 -2,085 Descending Kansas City Center
Fri 02:37:58 PM 40.1281 -89.3192 333° Northwest 379 436 13,800 -2,085 Descending Chicago Center
Fri 02:39:00 PM 40.2178 -89.3547 343° North 343 395 11,800 -1,920 Descending Chicago Center
Fri 02:40:03 PM 40.2939 -89.3853 343° North 296 341 9,800 -1,920 Descending Chicago Center
Fri 02:41:05 PM 40.3639 -89.4158 342° North 271 312 7,800 -1,935 Descending Chicago Center
Fri 02:42:07 PM 40.4292 -89.4497 338° Northwest 257 296 5,800 -2,081 Descending Chicago Center
Fri 02:43:09 PM 40.5061 -89.4894 339° North 252 290 3,500 -1,597 Descending Chicago Center
Fri 02:44:11 PM 40.5661 -89.5228 337° Northwest 244 281 2,500 -532 Descending Chicago Center
Fri 02:45:13 PM 40.6250 -89.5561 337° Northwest 237 273 2,400 -48 Descending Chicago Center
Fri 02:46:15 PM 40.6706 -89.5822 337° Northwest 200 230 2,400 -290 Level Chicago Center
Fri 02:47:17 PM 40.6981 -89.6100 323° Northwest 151 174 1,800 -532 Descending Chicago Center
Fri 02:48:19 PM 40.6892 -89.6594 257° West 134 154 1,300 -484 Descending Chicago Center
Fri 02:49:21 PM 40.6653 -89.6819 216° Southwest 127 146 800 -484 Descending Chicago Center

Login

Don't have an account? Register now (free) for customized features, flight alerts, and more!